createdAt,value
2023-10-20T00:00:56.912Z,15.67
2023-10-20T00:04:18.282Z,12.90
2023-10-20T00:07:40.227Z,12.20
2023-10-20T00:11:05.085Z,13.70
2023-10-20T00:14:27.304Z,13.97
2023-10-20T00:17:50.326Z,13.83
2023-10-20T00:21:11.969Z,12.00
2023-10-20T00:24:33.291Z,11.77
2023-10-20T00:27:55.407Z,11.07
2023-10-20T00:31:18.243Z,11.17
2023-10-20T00:34:41.092Z,11.67
2023-10-20T00:38:03.080Z,11.83
2023-10-20T00:41:24.696Z,8.53
2023-10-20T00:44:46.361Z,10.07
2023-10-20T00:48:08.304Z,9.20
2023-10-20T00:51:32.127Z,7.97
2023-10-20T00:54:55.160Z,9.53
2023-10-20T00:58:16.449Z,7.07
2023-10-20T01:01:38.450Z,7.03
2023-10-20T01:05:00.112Z,7.27
2023-10-20T01:08:22.908Z,6.00
2023-10-20T01:11:44.200Z,6.87
2023-10-20T01:15:07.647Z,6.87
2023-10-20T01:18:28.994Z,7.93
2023-10-20T01:21:50.212Z,5.83
2023-10-20T01:25:13.337Z,6.33
2023-10-20T01:28:34.511Z,6.20
2023-10-20T01:31:55.718Z,5.00
2023-10-20T01:35:17.085Z,5.57
2023-10-20T01:38:39.004Z,4.67
2023-10-20T01:42:01.590Z,4.10
2023-10-20T01:45:22.961Z,4.43
2023-10-20T01:48:44.248Z,5.47
2023-10-20T01:52:05.800Z,4.80
2023-10-20T01:55:27.270Z,5.70
2023-10-20T01:58:50.309Z,5.80
2023-10-20T02:02:11.964Z,5.00
2023-10-20T02:05:33.832Z,4.50
2023-10-20T02:08:55.402Z,5.57
2023-10-20T02:12:16.888Z,4.63
2023-10-20T02:15:40.101Z,5.17
2023-10-20T02:19:02.277Z,4.90
2023-10-20T02:22:23.585Z,5.10
2023-10-20T02:25:44.947Z,4.13
2023-10-20T02:29:06.309Z,5.53
2023-10-20T02:32:28.958Z,3.83
2023-10-20T02:35:50.837Z,5.07
2023-10-20T02:39:14.827Z,5.17
2023-10-20T02:42:36.494Z,4.27
2023-10-20T02:45:57.982Z,6.43
2023-10-20T02:49:21.222Z,4.60
2023-10-20T02:52:43.107Z,4.47
2023-10-20T02:56:11.891Z,3.70
2023-10-20T02:59:33.730Z,4.87
2023-10-20T03:02:56.171Z,3.90
2023-10-20T03:06:20.599Z,4.50
2023-10-20T03:09:42.277Z,4.10
2023-10-20T03:13:03.539Z,4.60
2023-10-20T03:16:24.836Z,4.83
2023-10-20T03:19:46.953Z,4.03
2023-10-20T03:23:09.795Z,4.50
2023-10-20T03:26:31.324Z,4.87
2023-10-20T03:29:52.982Z,4.23
2023-10-20T03:33:17.430Z,4.30
2023-10-20T03:36:39.208Z,5.17
2023-10-20T03:40:01.937Z,7.10
2023-10-20T03:43:25.627Z,4.33
2023-10-20T03:46:49.754Z,6.90
2023-10-20T03:50:15.453Z,5.77
2023-10-20T03:53:47.454Z,6.40
2023-10-20T03:57:10.190Z,5.63
2023-10-20T04:00:32.784Z,5.93
2023-10-20T04:03:54.107Z,6.53
2023-10-20T04:07:16.203Z,5.63
2023-10-20T04:10:38.670Z,7.63
2023-10-20T04:14:01.396Z,9.10
2023-10-20T04:17:22.832Z,7.13
2023-10-20T04:20:44.567Z,6.93
2023-10-20T04:24:09.116Z,8.67
2023-10-20T04:27:45.897Z,7.60
2023-10-20T04:31:26.074Z,6.77
2023-10-20T04:35:04.212Z,6.07
2023-10-20T04:38:42.888Z,6.53
2023-10-20T04:42:18.377Z,7.27
2023-10-20T04:45:56.490Z,9.03
2023-10-20T04:49:50.433Z,8.90
2023-10-20T04:53:24.552Z,6.70
2023-10-20T04:57:07.702Z,8.00
2023-10-20T05:00:36.555Z,10.03
2023-10-20T05:03:59.556Z,5.80
2023-10-20T05:07:27.510Z,6.47
2023-10-20T05:10:50.491Z,7.63
2023-10-20T05:14:11.950Z,6.70
2023-10-20T05:17:35.343Z,5.43
2023-10-20T05:20:57.097Z,6.97
2023-10-20T05:24:19.782Z,6.10
2023-10-20T05:27:41.466Z,7.57
2023-10-20T05:31:02.778Z,7.73
2023-10-20T05:34:24.005Z,6.20
2023-10-20T05:37:45.209Z,6.07
2023-10-20T05:41:07.958Z,7.93
2023-10-20T05:44:32.887Z,6.63
2023-10-20T05:47:54.596Z,6.67
2023-10-20T05:51:16.299Z,7.20
2023-10-20T05:54:37.736Z,7.43
2023-10-20T05:58:00.552Z,6.33
2023-10-20T06:01:21.789Z,5.93
2023-10-20T06:04:43.037Z,6.63
2023-10-20T06:08:04.785Z,6.23
2023-10-20T06:11:26.462Z,6.50
2023-10-20T06:14:49.105Z,6.93
2023-10-20T06:18:18.543Z,8.20
2023-10-20T06:21:47.409Z,10.93
2023-10-20T06:25:13.377Z,10.50
2023-10-20T06:28:35.058Z,6.57
2023-10-20T06:32:10.733Z,5.53
2023-10-20T06:35:34.535Z,6.53
2023-10-20T06:38:56.261Z,7.20
2023-10-20T06:42:17.839Z,20.80
2023-10-20T06:45:39.933Z,5.83
2023-10-20T06:49:04.186Z,8.10
2023-10-20T06:52:25.496Z,11.03
2023-10-20T06:56:08.828Z,5.17
2023-10-20T06:59:29.298Z,6.27
2023-10-20T07:02:51.171Z,5.53
2023-10-20T07:06:14.287Z,8.20
2023-10-20T07:09:35.636Z,10.17
2023-10-20T07:12:57.019Z,14.27
2023-10-20T07:16:18.314Z,15.70
2023-10-20T07:19:39.485Z,8.20
2023-10-20T07:23:02.399Z,9.60
2023-10-20T07:26:24.010Z,10.40
2023-10-20T07:29:46.195Z,8.10
2023-10-20T07:33:08.877Z,7.73
2023-10-20T07:36:30.455Z,6.17
2023-10-20T07:39:53.530Z,5.80
2023-10-20T07:43:15.072Z,6.10
2023-10-20T07:46:36.736Z,9.03
2023-10-20T07:49:59.529Z,5.47
2023-10-20T07:53:21.344Z,5.27
2023-10-20T07:56:44.021Z,6.03
2023-10-20T08:00:06.428Z,6.30
2023-10-20T08:03:33.979Z,6.70
2023-10-20T08:07:00.533Z,5.20
2023-10-20T08:10:22.883Z,6.57
2023-10-20T08:13:51.615Z,5.77
2023-10-20T08:17:13.607Z,7.10
2023-10-20T08:20:35.090Z,7.20
2023-10-20T08:23:56.873Z,5.93
2023-10-20T08:27:19.755Z,8.10
2023-10-20T08:30:43.553Z,6.00
2023-10-20T08:34:05.157Z,7.87
2023-10-20T08:37:26.471Z,5.83
2023-10-20T08:41:08.142Z,6.50
2023-10-20T08:44:29.396Z,5.13
2023-10-20T08:47:53.572Z,5.43
2023-10-20T08:51:18.163Z,5.60
2023-10-20T08:54:40.434Z,9.37
2023-10-20T08:58:01.540Z,5.30
2023-10-20T09:01:22.961Z,5.47
2023-10-20T09:04:45.825Z,4.60
2023-10-20T09:08:07.544Z,10.37
2023-10-20T09:11:32.746Z,6.63
2023-10-20T09:14:57.607Z,6.43
2023-10-20T09:18:19.305Z,6.23
2023-10-20T09:21:47.642Z,7.00
2023-10-20T09:25:11.196Z,7.30
2023-10-20T09:28:35.716Z,8.40
2023-10-20T09:32:01.636Z,8.43
2023-10-20T09:35:23.799Z,9.33
2023-10-20T09:38:52.990Z,7.77
2023-10-20T09:42:21.324Z,7.33
2023-10-20T09:45:45.750Z,7.40
2023-10-20T09:49:15.495Z,6.97
2023-10-20T09:52:37.768Z,7.40
2023-10-20T09:56:01.176Z,7.87
2023-10-20T09:59:25.135Z,6.13
2023-10-20T10:02:47.080Z,5.90
2023-10-20T10:06:15.152Z,8.17
2023-10-20T10:09:38.055Z,7.40
2023-10-20T10:13:02.726Z,6.93
2023-10-20T10:16:24.320Z,6.37
2023-10-20T10:19:52.020Z,6.70
2023-10-20T10:23:15.893Z,7.80
2023-10-20T10:26:46.593Z,6.30
2023-10-20T10:30:12.257Z,6.17
2023-10-20T10:33:33.631Z,7.27
2023-10-20T10:36:56.316Z,6.10
2023-10-20T10:40:20.336Z,5.10
2023-10-20T10:43:41.855Z,5.93
2023-10-20T10:47:05.774Z,6.13
2023-10-20T10:50:27.347Z,6.20
2023-10-20T10:53:48.732Z,7.93
2023-10-20T10:57:12.543Z,8.07
2023-10-20T11:00:34.642Z,7.40
2023-10-20T11:03:58.702Z,5.00
2023-10-20T11:07:22.025Z,5.50
2023-10-20T11:10:44.791Z,4.97
2023-10-20T11:14:07.437Z,5.83
2023-10-20T11:17:30.016Z,4.87
2023-10-20T11:20:57.230Z,5.53
2023-10-20T11:24:30.590Z,4.23
2023-10-20T11:27:55.914Z,3.83
2023-10-20T11:31:17.197Z,4.17
2023-10-20T11:34:39.266Z,4.30
2023-10-20T11:38:02.473Z,3.73
2023-10-20T11:41:24.058Z,4.47
2023-10-20T11:44:45.406Z,3.47
2023-10-20T11:48:07.335Z,4.47
2023-10-20T11:51:29.160Z,3.20
2023-10-20T11:54:52.062Z,4.47
2023-10-20T11:58:13.756Z,3.47
2023-10-20T12:01:35.788Z,3.67
2023-10-20T12:04:57.306Z,6.70
2023-10-20T12:08:18.889Z,3.80
2023-10-20T12:11:42.007Z,3.43
2023-10-20T12:15:04.322Z,4.00
2023-10-20T12:18:25.633Z,2.83
2023-10-20T12:21:46.946Z,3.23
2023-10-20T12:25:09.404Z,2.63
2023-10-20T12:28:32.452Z,2.90
2023-10-20T12:31:54.171Z,3.17
2023-10-20T12:35:16.425Z,2.90
2023-10-20T12:38:38.100Z,2.47
2023-10-20T12:42:03.780Z,2.53
2023-10-20T12:45:27.101Z,2.27
2023-10-20T12:48:48.656Z,1.90
2023-10-20T12:52:10.350Z,2.90
2023-10-20T12:55:31.722Z,2.57
2023-10-20T12:58:53.649Z,1.83
2023-10-20T13:02:16.194Z,2.10
2023-10-20T13:05:37.547Z,1.80
2023-10-20T13:08:59.180Z,2.77
2023-10-20T13:12:20.800Z,2.10
2023-10-20T13:15:42.504Z,2.97
2023-10-20T13:19:05.788Z,2.00
2023-10-20T13:22:27.162Z,1.37
2023-10-20T13:25:48.594Z,1.73
2023-10-20T13:29:10.374Z,2.73
2023-10-20T13:32:32.096Z,3.57
2023-10-20T13:35:55.430Z,2.60
2023-10-20T13:39:30.720Z,4.80
2023-10-20T13:42:52.822Z,2.83
2023-10-20T13:46:14.685Z,2.00
2023-10-20T13:49:36.344Z,1.77
2023-10-20T13:52:59.790Z,1.80
2023-10-20T13:56:21.243Z,1.93
2023-10-20T13:59:43.216Z,2.40
2023-10-20T14:03:05.823Z,2.67
2023-10-20T14:06:27.619Z,2.47
2023-10-20T14:09:50.285Z,1.70
2023-10-20T14:13:11.925Z,2.87
2023-10-20T14:16:35.669Z,1.47
2023-10-20T14:19:57.472Z,1.77
2023-10-20T14:23:19.148Z,1.70
2023-10-20T14:26:41.777Z,1.73
2023-10-20T14:30:03.512Z,2.83
2023-10-20T14:33:25.283Z,2.07
2023-10-20T14:36:47.182Z,2.47
2023-10-20T14:40:11.607Z,2.60
2023-10-20T14:43:36.077Z,2.13
2023-10-20T14:46:59.420Z,1.53
2023-10-20T14:50:22.113Z,1.80
2023-10-20T14:53:45.073Z,2.57
2023-10-20T14:57:07.517Z,2.53
2023-10-20T15:00:31.954Z,2.27
2023-10-20T15:03:53.551Z,1.87
2023-10-20T15:07:15.222Z,3.00
2023-10-20T15:10:36.975Z,2.43
2023-10-20T15:13:58.404Z,1.63
2023-10-20T15:17:21.013Z,1.77
2023-10-20T15:20:43.258Z,1.70
2023-10-20T15:24:06.045Z,2.23
2023-10-20T15:27:27.667Z,1.83
2023-10-20T15:30:49.024Z,1.70
2023-10-20T15:34:11.686Z,1.90
2023-10-20T15:37:33.015Z,1.33
2023-10-20T15:40:54.323Z,1.70
2023-10-20T15:44:15.513Z,1.70
2023-10-20T15:47:36.789Z,1.30
2023-10-20T15:50:59.837Z,4.00
2023-10-20T15:54:21.622Z,1.90
2023-10-20T15:57:43.599Z,3.50
2023-10-20T16:01:05.949Z,1.80
2023-10-20T16:04:28.879Z,2.00
2023-10-20T16:07:52.008Z,1.30
2023-10-20T16:11:13.667Z,2.70
2023-10-20T16:14:35.352Z,1.80
2023-10-20T16:17:57.687Z,1.63
2023-10-20T16:21:19.859Z,1.53
2023-10-20T16:24:43.263Z,2.27
2023-10-20T16:28:05.284Z,2.67
2023-10-20T16:31:26.977Z,1.90
2023-10-20T16:34:48.718Z,2.37
2023-10-20T16:38:10.350Z,1.53
2023-10-20T16:41:33.031Z,1.93
2023-10-20T16:44:54.812Z,2.93
2023-10-20T16:48:16.941Z,1.57
2023-10-20T16:51:39.280Z,1.57
2023-10-20T16:55:01.161Z,1.27
2023-10-20T16:58:23.873Z,2.20
2023-10-20T17:01:45.189Z,1.47
2023-10-20T17:05:07.517Z,1.10
2023-10-20T17:08:29.136Z,1.40
2023-10-20T17:11:51.385Z,1.23
2023-10-20T17:15:14.743Z,2.77
2023-10-20T17:18:36.525Z,8.83
2023-10-20T17:21:59.157Z,18.47
2023-10-20T17:25:20.453Z,5.63
2023-10-20T17:28:42.647Z,5.50
2023-10-20T17:32:05.652Z,3.47
2023-10-20T17:35:27.231Z,3.67
2023-10-20T17:38:48.604Z,2.17
2023-10-20T17:42:10.502Z,3.33
2023-10-20T17:45:32.296Z,3.37
2023-10-20T17:48:55.371Z,1.93
2023-10-20T17:52:17.335Z,1.63
2023-10-20T17:55:42.481Z,2.47
2023-10-20T17:59:04.548Z,2.80
2023-10-20T18:02:26.859Z,1.23
2023-10-20T18:05:52.017Z,2.00
2023-10-20T18:09:16.360Z,2.30
2023-10-20T18:12:38.137Z,1.50
2023-10-20T18:15:59.551Z,2.57
2023-10-20T18:19:21.410Z,1.63
2023-10-20T18:22:44.149Z,2.00
2023-10-20T18:26:06.116Z,2.27
2023-10-20T18:29:27.608Z,2.00
2023-10-20T18:32:49.192Z,2.10
2023-10-20T18:36:12.457Z,1.97
2023-10-20T18:39:35.716Z,2.37
2023-10-20T18:42:58.654Z,2.57
2023-10-20T18:46:21.341Z,1.90
2023-10-20T18:49:43.351Z,3.40
2023-10-20T18:53:05.229Z,3.57
2023-10-20T18:56:28.086Z,2.67
2023-10-20T18:59:49.471Z,2.90
2023-10-20T19:03:11.205Z,3.50
2023-10-20T19:06:32.845Z,3.63
2023-10-20T19:09:55.187Z,3.53
2023-10-20T19:13:18.058Z,3.80
2023-10-20T19:16:39.254Z,3.70
2023-10-20T19:20:00.666Z,3.93
2023-10-20T19:23:22.062Z,3.07
2023-10-20T19:26:45.207Z,3.30
2023-10-20T19:30:09.711Z,4.10
2023-10-20T19:33:32.934Z,4.10
2023-10-20T19:36:55.066Z,3.63
2023-10-20T19:40:16.442Z,3.60
2023-10-20T19:43:37.715Z,3.83
2023-10-20T19:47:00.375Z,3.37
2023-10-20T19:50:21.790Z,3.47
2023-10-20T19:53:43.316Z,4.50
2023-10-20T19:57:05.284Z,3.97
2023-10-20T20:00:27.260Z,4.10
2023-10-20T20:03:50.344Z,4.73
2023-10-20T20:07:11.751Z,5.20
2023-10-20T20:10:33.168Z,4.07
2023-10-20T20:13:54.410Z,6.10
2023-10-20T20:17:15.863Z,4.80
2023-10-20T20:20:38.974Z,5.43
2023-10-20T20:24:00.748Z,5.17
2023-10-20T20:27:22.861Z,5.17
2023-10-20T20:30:44.600Z,6.00
2023-10-20T20:34:06.152Z,5.33
2023-10-20T20:37:28.740Z,6.07
2023-10-20T20:40:50.299Z,5.80
2023-10-20T20:44:11.873Z,7.17
2023-10-20T20:47:33.269Z,6.27
2023-10-20T20:50:55.307Z,8.00
2023-10-20T20:54:18.157Z,4.60
2023-10-20T20:57:40.074Z,5.47
2023-10-20T21:01:09.205Z,5.67
2023-10-20T21:04:31.068Z,6.50
2023-10-20T21:07:52.674Z,6.17
2023-10-20T21:11:15.489Z,7.03
2023-10-20T21:14:37.334Z,6.57
2023-10-20T21:17:58.965Z,8.23
2023-10-20T21:21:23.629Z,6.57
2023-10-20T21:24:45.282Z,6.37
2023-10-20T21:28:08.976Z,7.23
2023-10-20T21:31:30.421Z,7.53
2023-10-20T21:34:52.674Z,7.87
2023-10-20T21:38:14.322Z,9.47
2023-10-20T21:41:35.698Z,5.63
2023-10-20T21:44:58.256Z,10.17
2023-10-20T21:48:20.004Z,7.37
2023-10-20T21:51:41.624Z,8.47
2023-10-20T21:55:03.118Z,8.63
2023-10-20T21:58:24.467Z,8.00
2023-10-20T22:01:55.030Z,8.77
2023-10-20T22:05:24.100Z,8.63
2023-10-20T22:08:45.400Z,6.63
2023-10-20T22:12:07.103Z,9.87
2023-10-20T22:15:28.520Z,8.43
2023-10-20T22:18:51.111Z,10.53
2023-10-20T22:22:13.235Z,9.27
2023-10-20T22:25:35.064Z,9.17
2023-10-20T22:28:56.898Z,9.40
2023-10-20T22:32:18.362Z,10.03
2023-10-20T22:35:40.998Z,8.30
2023-10-20T22:39:02.502Z,8.90
2023-10-20T22:42:23.914Z,11.70
2023-10-20T22:45:45.070Z,10.03
2023-10-20T22:49:06.541Z,10.43
2023-10-20T22:52:29.279Z,12.70
2023-10-20T22:55:50.595Z,11.50
2023-10-20T22:59:11.979Z,15.23
2023-10-20T23:02:33.937Z,10.17
2023-10-20T23:05:55.703Z,10.00
2023-10-20T23:09:18.277Z,12.93
2023-10-20T23:12:39.454Z,13.00
2023-10-20T23:16:00.776Z,12.10
2023-10-20T23:19:22.137Z,11.70
2023-10-20T23:22:44.082Z,14.97
2023-10-20T23:26:06.872Z,12.37
2023-10-20T23:29:28.621Z,14.43
2023-10-20T23:32:50.336Z,15.37
2023-10-20T23:36:12.185Z,11.40
2023-10-20T23:39:35.705Z,13.47
2023-10-20T23:42:59.128Z,11.33
2023-10-20T23:46:20.892Z,15.57
2023-10-20T23:49:42.503Z,13.27
2023-10-20T23:53:04.130Z,15.37
2023-10-20T23:56:26.140Z,12.70
2023-10-20T23:59:48.836Z,15.97
